createdAt,value
2017-12-30T00:01:47.076Z,28.90
2017-12-30T00:04:14.697Z,31.63
2017-12-30T00:06:42.321Z,27.67
2017-12-30T00:09:10.216Z,26.57
2017-12-30T00:11:40.727Z,27.90
2017-12-30T00:14:08.304Z,27.80
2017-12-30T00:16:35.877Z,27.03
2017-12-30T00:19:05.783Z,23.57
2017-12-30T00:21:34.378Z,26.13
2017-12-30T00:24:02.919Z,29.77
2017-12-30T00:26:31.496Z,33.00
2017-12-30T00:28:59.109Z,28.73
2017-12-30T00:31:26.727Z,33.67
2017-12-30T00:33:54.286Z,31.00
2017-12-30T00:36:22.582Z,34.23
2017-12-30T00:38:50.138Z,33.40
2017-12-30T00:41:17.741Z,33.53
2017-12-30T00:43:45.346Z,34.57
2017-12-30T00:46:12.909Z,40.77
2017-12-30T00:48:40.537Z,36.07
2017-12-30T00:51:08.100Z,33.03
2017-12-30T00:53:36.084Z,31.00
2017-12-30T00:56:03.654Z,36.13
2017-12-30T00:58:31.217Z,28.00
2017-12-30T01:00:58.804Z,29.50
2017-12-30T01:03:26.401Z,33.27
2017-12-30T01:05:54.004Z,26.43
2017-12-30T01:08:21.612Z,23.50
2017-12-30T01:10:49.174Z,22.03
2017-12-30T01:13:16.774Z,18.97
2017-12-30T01:15:45.110Z,20.83
2017-12-30T01:18:12.725Z,25.80
2017-12-30T01:20:40.292Z,23.67
2017-12-30T01:23:07.845Z,22.73
2017-12-30T01:25:35.462Z,16.57
2017-12-30T01:28:03.025Z,17.33
2017-12-30T01:30:30.621Z,14.90
2017-12-30T01:32:58.185Z,20.47
2017-12-30T01:35:25.791Z,16.47
2017-12-30T01:37:53.407Z,17.10
2017-12-30T01:40:20.998Z,14.57
2017-12-30T01:42:48.565Z,12.40
2017-12-30T01:45:16.153Z,21.13
2017-12-30T01:47:43.709Z,14.33
2017-12-30T01:50:11.309Z,22.20
2017-12-30T01:52:38.895Z,20.17
2017-12-30T01:55:06.534Z,11.03
2017-12-30T01:57:34.101Z,13.37
2017-12-30T02:00:01.656Z,16.37
2017-12-30T02:02:29.254Z,9.97
2017-12-30T02:04:56.858Z,10.17
2017-12-30T02:07:24.442Z,9.57
2017-12-30T02:09:52.027Z,10.33
2017-12-30T02:12:19.615Z,13.90
2017-12-30T02:14:47.188Z,11.13
2017-12-30T02:17:14.769Z,11.53
2017-12-30T02:19:42.421Z,7.43
2017-12-30T02:22:09.990Z,10.10
2017-12-30T02:24:37.542Z,7.57
2017-12-30T02:27:05.165Z,9.60
2017-12-30T02:29:33.536Z,8.90
2017-12-30T02:32:01.168Z,8.97
2017-12-30T02:34:28.742Z,10.63
2017-12-30T02:36:56.372Z,9.40
2017-12-30T02:39:23.929Z,10.40
2017-12-30T02:41:52.297Z,15.77
2017-12-30T02:44:19.866Z,18.00
2017-12-30T02:46:47.468Z,17.20
2017-12-30T02:49:15.153Z,22.60
2017-12-30T02:51:42.721Z,15.80
2017-12-30T02:54:10.982Z,27.67
2017-12-30T02:56:38.593Z,21.57
2017-12-30T02:59:06.965Z,18.10
2017-12-30T03:01:34.522Z,20.30
2017-12-30T03:04:02.139Z,21.47
2017-12-30T03:06:29.697Z,24.37
2017-12-30T03:08:57.252Z,24.57
2017-12-30T03:11:24.907Z,24.90
2017-12-30T03:13:52.525Z,29.90
2017-12-30T03:16:20.130Z,29.63
2017-12-30T03:18:47.768Z,22.93
2017-12-30T03:21:15.506Z,27.40
2017-12-30T03:23:43.061Z,23.10
2017-12-30T03:26:10.661Z,21.10
2017-12-30T03:28:38.244Z,30.63
2017-12-30T03:31:05.832Z,27.63
2017-12-30T03:33:33.419Z,26.90
2017-12-30T03:36:01.015Z,19.63
2017-12-30T03:38:28.614Z,24.77
2017-12-30T03:40:56.204Z,17.87
2017-12-30T03:43:23.766Z,22.67
2017-12-30T03:45:51.427Z,30.43
2017-12-30T03:48:18.985Z,21.87
2017-12-30T03:50:46.594Z,24.77
2017-12-30T03:53:14.203Z,25.93
2017-12-30T03:55:41.767Z,26.40
2017-12-30T03:58:09.386Z,28.17
2017-12-30T04:00:36.950Z,20.30
2017-12-30T04:03:04.527Z,21.60
2017-12-30T04:05:32.125Z,23.97
2017-12-30T04:07:59.689Z,24.30
2017-12-30T04:10:27.898Z,21.70
2017-12-30T04:12:55.458Z,32.30
2017-12-30T04:15:23.063Z,26.30
2017-12-30T04:17:50.614Z,24.30
2017-12-30T04:20:18.227Z,29.50
2017-12-30T04:22:45.791Z,31.60
2017-12-30T04:25:13.375Z,28.03
2017-12-30T04:27:40.931Z,22.50
2017-12-30T04:30:08.628Z,23.67
2017-12-30T04:32:36.198Z,29.60
2017-12-30T04:35:03.792Z,25.57
2017-12-30T04:37:31.343Z,22.17
2017-12-30T04:39:59.018Z,18.97
2017-12-30T04:42:26.632Z,24.70
2017-12-30T04:44:54.192Z,27.60
2017-12-30T04:47:21.757Z,28.17
2017-12-30T04:49:49.358Z,16.70
2017-12-30T04:52:16.984Z,19.60
2017-12-30T04:54:44.595Z,24.10
2017-12-30T04:57:12.164Z,21.03
2017-12-30T04:59:39.757Z,19.80
2017-12-30T05:02:07.325Z,20.60
2017-12-30T05:04:34.917Z,23.63
2017-12-30T05:07:02.482Z,23.10
2017-12-30T05:09:30.078Z,21.20
2017-12-30T05:11:57.636Z,21.13
2017-12-30T05:14:25.222Z,17.03
2017-12-30T05:16:52.772Z,20.67
2017-12-30T05:19:20.377Z,17.87
2017-12-30T05:21:48.734Z,22.43
2017-12-30T05:24:16.293Z,32.60
2017-12-30T05:26:44.646Z,22.93
2017-12-30T05:29:12.208Z,23.27
2017-12-30T05:31:39.818Z,20.10
2017-12-30T05:34:08.180Z,27.03
2017-12-30T05:36:35.772Z,21.23
2017-12-30T05:39:03.387Z,23.57
2017-12-30T05:41:31.007Z,26.77
2017-12-30T05:43:59.139Z,22.70
2017-12-30T05:46:26.696Z,28.37
2017-12-30T05:48:54.367Z,26.60
2017-12-30T05:51:21.968Z,21.57
2017-12-30T05:53:49.869Z,16.53
2017-12-30T05:56:17.428Z,19.47
2017-12-30T05:58:45.019Z,14.23
2017-12-30T06:01:12.708Z,21.23
2017-12-30T06:03:40.310Z,15.00
2017-12-30T06:06:07.882Z,13.73
2017-12-30T06:08:35.443Z,17.70
2017-12-30T06:11:03.050Z,16.83
2017-12-30T06:13:30.646Z,19.63
2017-12-30T06:15:58.212Z,16.63
2017-12-30T06:18:25.836Z,22.07
2017-12-30T06:20:53.473Z,21.30
2017-12-30T06:23:21.064Z,15.60
2017-12-30T06:25:48.625Z,17.23
2017-12-30T06:28:16.280Z,16.07
2017-12-30T06:30:43.851Z,19.57
2017-12-30T06:33:11.449Z,17.33
2017-12-30T06:35:39.053Z,19.63
2017-12-30T06:38:06.610Z,18.20
2017-12-30T06:40:34.210Z,17.90
2017-12-30T06:43:01.772Z,20.27
2017-12-30T06:45:29.375Z,19.13
2017-12-30T06:47:56.950Z,13.50
2017-12-30T06:50:24.536Z,21.10
2017-12-30T06:52:52.121Z,21.93
2017-12-30T06:55:19.683Z,19.70
2017-12-30T06:57:47.271Z,12.03
2017-12-30T07:00:14.830Z,19.97
2017-12-30T07:02:42.429Z,22.83
2017-12-30T07:05:10.043Z,20.00
2017-12-30T07:07:37.645Z,16.33
2017-12-30T07:10:05.228Z,14.70
2017-12-30T07:12:32.838Z,25.37
2017-12-30T07:15:00.434Z,12.50
2017-12-30T07:17:28.029Z,13.63
2017-12-30T07:19:55.618Z,12.40
2017-12-30T07:22:23.175Z,15.67
2017-12-30T07:24:50.765Z,17.10
2017-12-30T07:27:18.334Z,14.87
2017-12-30T07:29:46.657Z,16.30
2017-12-30T07:32:14.288Z,16.53
2017-12-30T07:34:41.846Z,11.47
2017-12-30T07:37:09.439Z,17.73
2017-12-30T07:39:37.033Z,15.83
2017-12-30T07:42:04.646Z,12.63
2017-12-30T07:44:32.210Z,13.83
2017-12-30T07:46:59.817Z,16.47
2017-12-30T07:49:27.363Z,7.50
2017-12-30T07:51:54.950Z,21.93
2017-12-30T07:54:22.508Z,12.70
2017-12-30T07:56:50.892Z,10.10
2017-12-30T07:59:19.251Z,17.33
2017-12-30T08:01:46.809Z,17.47
2017-12-30T08:04:14.465Z,13.50
2017-12-30T08:06:42.041Z,15.83
2017-12-30T08:09:09.651Z,13.70
2017-12-30T08:11:37.214Z,16.27
2017-12-30T08:14:04.805Z,12.97
2017-12-30T08:16:32.364Z,11.23
2017-12-30T08:18:59.950Z,15.10
2017-12-30T08:21:27.555Z,11.17
2017-12-30T08:23:55.114Z,13.90
2017-12-30T08:26:22.711Z,14.43
2017-12-30T08:28:50.327Z,9.87
2017-12-30T08:31:17.882Z,11.57
2017-12-30T08:33:45.482Z,12.27
2017-12-30T08:36:13.043Z,11.13
2017-12-30T08:38:40.620Z,15.03
2017-12-30T08:41:08.489Z,15.23
2017-12-30T08:43:36.043Z,15.13
2017-12-30T08:46:03.593Z,11.33
2017-12-30T08:48:31.171Z,15.20
2017-12-30T08:50:58.716Z,11.60
2017-12-30T08:53:26.307Z,19.83
2017-12-30T08:55:53.864Z,16.47
2017-12-30T08:58:21.417Z,17.03
2017-12-30T09:00:49.774Z,15.07
2017-12-30T09:03:17.329Z,12.40
2017-12-30T09:05:44.917Z,18.13
2017-12-30T09:08:12.478Z,13.27
2017-12-30T09:10:40.832Z,14.43
2017-12-30T09:13:08.387Z,16.03
2017-12-30T09:15:35.982Z,17.90
2017-12-30T09:18:03.545Z,15.57
2017-12-30T09:20:31.138Z,14.37
2017-12-30T09:22:58.726Z,17.17
2017-12-30T09:25:26.329Z,25.83
2017-12-30T09:27:53.888Z,16.83
2017-12-30T09:30:21.449Z,18.17
2017-12-30T09:32:49.049Z,14.33
2017-12-30T09:35:16.639Z,16.87
2017-12-30T09:37:44.192Z,18.33
2017-12-30T09:42:45.694Z,20.13
2017-12-30T09:45:13.290Z,22.23
2017-12-30T09:47:40.874Z,24.23
2017-12-30T09:50:08.432Z,22.37
2017-12-30T09:52:36.025Z,20.20
2017-12-30T09:55:04.891Z,19.30
2017-12-30T09:57:34.188Z,21.77
2017-12-30T10:00:02.550Z,20.80
2017-12-30T10:02:30.177Z,16.10
2017-12-30T10:04:57.774Z,21.97
2017-12-30T10:07:25.337Z,16.83
2017-12-30T10:09:52.934Z,21.83
2017-12-30T10:12:20.633Z,16.57
2017-12-30T10:14:48.190Z,19.00
2017-12-30T10:17:16.552Z,16.43
2017-12-30T10:19:44.158Z,19.20
2017-12-30T10:22:11.714Z,15.50
2017-12-30T10:24:39.271Z,16.00
2017-12-30T10:27:06.857Z,20.97
2017-12-30T10:29:34.460Z,17.73
2017-12-30T10:32:02.013Z,14.03
2017-12-30T10:34:29.579Z,14.97
2017-12-30T10:36:57.162Z,14.60
2017-12-30T10:39:25.520Z,14.33
2017-12-30T10:41:53.076Z,13.73
2017-12-30T10:44:20.668Z,15.17
2017-12-30T10:46:48.996Z,12.77
2017-12-30T10:49:16.585Z,15.93
2017-12-30T10:51:44.137Z,13.73
2017-12-30T10:54:11.717Z,9.23
2017-12-30T10:56:39.309Z,8.30
2017-12-30T10:59:09.030Z,12.93
2017-12-30T11:01:36.621Z,8.97
2017-12-30T11:04:04.212Z,6.83
2017-12-30T11:06:31.775Z,10.90
2017-12-30T11:08:59.364Z,8.70
2017-12-30T11:11:26.926Z,7.80
2017-12-30T11:13:54.517Z,9.47
2017-12-30T11:16:22.120Z,10.60
2017-12-30T11:18:49.736Z,10.03
2017-12-30T11:21:17.292Z,6.83
2017-12-30T11:23:44.849Z,9.00
2017-12-30T11:26:12.426Z,6.87
2017-12-30T11:28:39.979Z,4.77
2017-12-30T11:31:07.572Z,9.13
2017-12-30T11:33:35.135Z,5.83
2017-12-30T11:36:03.502Z,4.30
2017-12-30T11:38:31.073Z,5.30
2017-12-30T11:40:58.669Z,6.33
2017-12-30T11:43:26.227Z,5.63
2017-12-30T11:45:53.829Z,8.03
2017-12-30T11:48:21.442Z,8.27
2017-12-30T11:50:48.995Z,4.83
2017-12-30T11:53:16.549Z,5.13
2017-12-30T11:55:45.790Z,4.90
2017-12-30T11:58:13.372Z,7.47
2017-12-30T12:00:40.927Z,6.43
2017-12-30T12:03:08.513Z,5.97
2017-12-30T12:05:36.101Z,9.37
2017-12-30T12:08:03.660Z,5.90
2017-12-30T12:10:31.248Z,5.70
2017-12-30T12:12:58.855Z,7.33
2017-12-30T12:15:26.417Z,8.33
2017-12-30T12:17:53.979Z,8.87
2017-12-30T12:20:22.332Z,9.37
2017-12-30T12:22:49.884Z,11.97
2017-12-30T12:25:17.474Z,11.97
2017-12-30T12:27:45.028Z,15.40
2017-12-30T12:30:12.641Z,17.97
2017-12-30T12:32:40.239Z,21.43
2017-12-30T12:35:07.804Z,20.93
2017-12-30T12:37:35.412Z,24.47
2017-12-30T12:40:03.023Z,24.87
2017-12-30T12:42:31.324Z,21.77
2017-12-30T12:44:58.877Z,23.00
2017-12-30T12:47:26.481Z,21.03
2017-12-30T12:49:54.083Z,23.80
2017-12-30T12:52:21.681Z,24.80
2017-12-30T12:54:49.270Z,21.17
2017-12-30T12:57:16.857Z,27.07
2017-12-30T12:59:44.453Z,22.03
2017-12-30T13:02:12.816Z,25.40
2017-12-30T13:04:40.414Z,27.40
2017-12-30T13:07:07.977Z,25.53
2017-12-30T13:09:35.571Z,26.53
2017-12-30T13:12:03.168Z,29.17
2017-12-30T13:14:30.733Z,32.40
2017-12-30T13:16:58.334Z,35.03
2017-12-30T13:19:25.940Z,38.10
2017-12-30T13:21:53.518Z,34.10
2017-12-30T13:24:21.136Z,30.90
2017-12-30T13:26:48.733Z,28.23
2017-12-30T13:29:16.300Z,31.03
2017-12-30T13:31:43.896Z,30.13
2017-12-30T13:34:11.506Z,28.10
2017-12-30T13:36:39.105Z,26.47
2017-12-30T13:39:07.460Z,23.50
2017-12-30T13:41:35.087Z,18.50
2017-12-30T13:44:02.657Z,20.77
2017-12-30T13:46:30.222Z,23.53
2017-12-30T13:48:57.817Z,22.30
2017-12-30T13:51:25.382Z,12.50
2017-12-30T13:53:53.737Z,16.70
2017-12-30T13:56:21.339Z,17.53
2017-12-30T13:58:48.953Z,16.70
2017-12-30T14:01:16.627Z,18.40
2017-12-30T14:03:44.185Z,13.60
2017-12-30T14:06:12.223Z,20.63
2017-12-30T14:08:40.595Z,22.77
2017-12-30T14:11:08.196Z,24.70
2017-12-30T14:13:35.787Z,16.23
2017-12-30T14:16:04.106Z,19.13
2017-12-30T14:18:31.697Z,9.73
2017-12-30T14:20:59.260Z,11.60
2017-12-30T14:23:26.894Z,11.80
2017-12-30T14:25:54.489Z,10.63
2017-12-30T14:28:22.170Z,9.07
2017-12-30T14:30:50.570Z,12.27
2017-12-30T14:33:18.140Z,13.47
2017-12-30T14:35:45.744Z,13.67
2017-12-30T14:38:13.314Z,10.27
2017-12-30T14:40:40.917Z,7.03
2017-12-30T14:43:08.466Z,7.73
2017-12-30T14:45:36.058Z,8.97
2017-12-30T14:48:03.617Z,9.93
2017-12-30T14:50:31.219Z,12.33
2017-12-30T14:52:58.772Z,9.03
2017-12-30T14:55:26.360Z,5.47
2017-12-30T14:57:54.781Z,4.93
2017-12-30T15:00:22.410Z,6.87
2017-12-30T15:02:50.017Z,7.83
2017-12-30T15:05:17.577Z,7.10
2017-12-30T15:07:45.134Z,5.50
2017-12-30T15:10:12.727Z,6.10
2017-12-30T15:12:40.307Z,3.77
2017-12-30T15:15:08.665Z,6.30
2017-12-30T15:17:36.220Z,9.47
2017-12-30T15:20:03.829Z,5.03
2017-12-30T15:22:31.407Z,2.97
2017-12-30T15:24:59.113Z,4.07
2017-12-30T15:27:26.707Z,2.87
2017-12-30T15:29:54.308Z,6.30
2017-12-30T15:32:21.873Z,7.90
2017-12-30T15:34:49.453Z,4.13
2017-12-30T15:37:17.052Z,9.37
2017-12-30T15:39:44.756Z,6.43
2017-12-30T15:42:12.374Z,9.73
2017-12-30T15:44:40.073Z,10.80
2017-12-30T15:47:07.658Z,7.70
2017-12-30T15:49:35.286Z,6.80
2017-12-30T15:52:02.880Z,10.57
2017-12-30T15:54:30.454Z,8.07
2017-12-30T15:56:58.193Z,7.67
2017-12-30T15:59:25.901Z,11.97
2017-12-30T16:01:53.472Z,14.27
2017-12-30T16:04:21.206Z,7.50
2017-12-30T16:06:48.951Z,10.87
2017-12-30T16:09:16.520Z,9.37
2017-12-30T16:11:44.158Z,10.23
2017-12-30T16:14:11.715Z,9.47
2017-12-30T16:16:39.360Z,12.13
2017-12-30T16:19:06.953Z,10.93
2017-12-30T16:21:34.611Z,14.40
2017-12-30T16:24:02.377Z,22.37
2017-12-30T16:26:29.998Z,14.67
2017-12-30T16:28:57.602Z,13.20
2017-12-30T16:31:25.168Z,12.73
2017-12-30T16:33:52.773Z,11.97
2017-12-30T16:36:20.482Z,8.83
2017-12-30T16:38:48.097Z,9.50
2017-12-30T16:41:15.745Z,7.00
2017-12-30T16:43:43.305Z,9.00
2017-12-30T16:46:10.967Z,10.80
2017-12-30T16:48:38.569Z,13.37
2017-12-30T16:51:06.166Z,11.77
2017-12-30T16:53:33.750Z,8.27
2017-12-30T16:56:01.427Z,10.40
2017-12-30T16:58:29.022Z,11.73
2017-12-30T17:00:56.642Z,16.83
2017-12-30T17:03:24.211Z,10.73
2017-12-30T17:05:51.888Z,12.93
2017-12-30T17:08:19.717Z,9.03
2017-12-30T17:10:47.320Z,12.13
2017-12-30T17:13:15.075Z,12.17
2017-12-30T17:15:42.715Z,14.00
2017-12-30T17:18:10.351Z,14.67
2017-12-30T17:20:38.023Z,14.37
2017-12-30T17:23:06.683Z,15.87
2017-12-30T17:25:34.354Z,14.60
2017-12-30T17:28:01.957Z,15.07
2017-12-30T17:30:30.314Z,16.23
2017-12-30T17:32:57.897Z,16.67
2017-12-30T17:35:25.780Z,17.40
2017-12-30T17:37:53.509Z,9.57
2017-12-30T17:40:21.100Z,13.93
2017-12-30T17:42:48.735Z,10.47
2017-12-30T17:45:16.390Z,8.53
2017-12-30T17:47:44.131Z,17.20
2017-12-30T17:50:11.784Z,14.40
2017-12-30T17:52:39.351Z,19.90
2017-12-30T17:55:06.966Z,20.77
2017-12-30T17:57:34.585Z,15.93
2017-12-30T18:00:02.209Z,25.40
2017-12-30T18:02:29.835Z,24.13
2017-12-30T18:04:57.398Z,18.80
2017-12-30T18:07:25.000Z,21.50
2017-12-30T18:09:52.561Z,25.57
2017-12-30T18:12:20.183Z,23.33
2017-12-30T18:14:48.539Z,20.33
2017-12-30T18:17:16.104Z,21.70
2017-12-30T18:19:43.697Z,22.37
2017-12-30T18:22:11.284Z,22.77
2017-12-30T18:24:38.961Z,32.27
2017-12-30T18:27:06.693Z,20.30
2017-12-30T18:29:34.524Z,15.47
2017-12-30T18:32:02.081Z,21.17
2017-12-30T18:34:29.714Z,22.93
2017-12-30T18:36:57.323Z,21.43
2017-12-30T18:39:25.031Z,19.10
2017-12-30T18:41:52.552Z,22.53
2017-12-30T18:44:20.125Z,28.23
2017-12-30T18:46:48.889Z,17.03
2017-12-30T18:49:17.261Z,21.43
2017-12-30T18:51:44.923Z,14.73
2017-12-30T18:54:12.537Z,20.60
2017-12-30T18:56:40.141Z,11.20
2017-12-30T18:59:07.795Z,14.17
2017-12-30T19:01:35.365Z,17.10
2017-12-30T19:04:02.974Z,15.07
2017-12-30T19:06:30.546Z,18.73
2017-12-30T19:08:58.217Z,14.33
2017-12-30T19:11:27.763Z,13.13
2017-12-30T19:13:56.209Z,13.70
2017-12-30T19:16:23.821Z,15.23
2017-12-30T19:18:51.456Z,10.60
2017-12-30T19:21:19.035Z,10.93
2017-12-30T19:23:46.792Z,16.37
2017-12-30T19:26:14.399Z,13.87
2017-12-30T19:28:42.122Z,17.20
2017-12-30T19:31:10.454Z,16.90
2017-12-30T19:33:38.056Z,25.13
2017-12-30T19:36:05.844Z,17.27
2017-12-30T19:38:33.406Z,20.00
2017-12-30T19:41:01.002Z,31.57
2017-12-30T19:43:28.565Z,32.87
2017-12-30T19:45:56.265Z,22.33
2017-12-30T19:48:23.902Z,25.80
2017-12-30T19:50:51.497Z,15.13
2017-12-30T19:53:19.239Z,18.90
2017-12-30T19:55:46.897Z,23.27
2017-12-30T19:58:14.609Z,17.53
2017-12-30T20:00:42.198Z,17.77
2017-12-30T20:03:09.805Z,15.13
2017-12-30T20:05:37.381Z,14.40
2017-12-30T20:08:05.866Z,18.73
2017-12-30T20:10:33.494Z,21.20
2017-12-30T20:13:01.050Z,16.37
2017-12-30T20:15:28.679Z,14.63
2017-12-30T20:17:56.264Z,16.70
2017-12-30T20:20:24.649Z,19.37
2017-12-30T20:22:52.239Z,14.53
2017-12-30T20:25:19.878Z,14.80
2017-12-30T20:27:47.444Z,11.90
2017-12-30T20:30:15.236Z,16.20
2017-12-30T20:32:42.806Z,17.43
2017-12-30T20:35:10.408Z,12.00
2017-12-30T20:37:38.066Z,16.23
2017-12-30T20:40:05.821Z,16.20
2017-12-30T20:42:33.392Z,13.50
2017-12-30T20:45:01.090Z,15.13
2017-12-30T20:47:28.708Z,18.17
2017-12-30T20:49:56.526Z,19.10
2017-12-30T20:52:24.894Z,13.90
2017-12-30T20:54:52.587Z,18.67
2017-12-30T20:57:20.961Z,19.20
2017-12-30T20:59:49.341Z,11.33
2017-12-30T21:02:16.905Z,16.27
2017-12-30T21:04:45.268Z,18.30
2017-12-30T21:07:13.693Z,15.43
2017-12-30T21:09:41.245Z,14.80
2017-12-30T21:12:08.837Z,17.87
2017-12-30T21:14:37.147Z,12.63
2017-12-30T21:17:04.799Z,16.20
2017-12-30T21:19:32.374Z,14.80
2017-12-30T21:21:59.951Z,16.50
2017-12-30T21:24:27.548Z,17.00
2017-12-30T21:26:55.154Z,15.87
2017-12-30T21:29:23.527Z,14.43
2017-12-30T21:31:51.879Z,15.00
2017-12-30T21:34:19.488Z,19.50
2017-12-30T21:36:48.077Z,14.97
2017-12-30T21:39:15.888Z,21.87
2017-12-30T21:41:43.452Z,19.03
2017-12-30T21:44:11.067Z,14.50
2017-12-30T21:46:38.781Z,19.83
2017-12-30T21:49:06.715Z,18.73
2017-12-30T21:51:34.554Z,16.97
2017-12-30T21:54:02.114Z,28.10
2017-12-30T21:56:30.588Z,25.47
2017-12-30T21:59:00.239Z,24.13
2017-12-30T22:01:27.877Z,24.03
2017-12-30T22:03:56.085Z,21.40
2017-12-30T22:06:23.937Z,22.60
2017-12-30T22:08:51.557Z,26.33
2017-12-30T22:11:19.132Z,19.60
2017-12-30T22:13:46.759Z,25.97
2017-12-30T22:16:14.352Z,24.70
2017-12-30T22:18:41.943Z,22.87
2017-12-30T22:21:09.728Z,20.97
2017-12-30T22:23:37.326Z,19.23
2017-12-30T22:26:04.951Z,22.70
2017-12-30T22:28:32.958Z,16.40
2017-12-30T22:31:00.561Z,23.63
2017-12-30T22:33:28.125Z,17.83
2017-12-30T22:35:55.896Z,20.23
2017-12-30T22:38:24.471Z,23.10
2017-12-30T22:40:52.111Z,21.77
2017-12-30T22:43:20.451Z,18.03
2017-12-30T22:45:49.445Z,19.00
2017-12-30T22:48:18.727Z,20.83
2017-12-30T22:50:46.292Z,17.57
2017-12-30T22:53:14.398Z,25.23
2017-12-30T22:55:41.958Z,20.77
2017-12-30T22:58:09.562Z,15.00
2017-12-30T23:00:37.628Z,16.13
2017-12-30T23:03:06.739Z,23.37
2017-12-30T23:05:36.199Z,11.47
2017-12-30T23:08:03.887Z,19.00
2017-12-30T23:10:31.521Z,13.67
2017-12-30T23:12:59.565Z,13.33
2017-12-30T23:15:27.161Z,23.57
2017-12-30T23:17:55.566Z,18.27
2017-12-30T23:20:23.148Z,16.63
2017-12-30T23:22:50.709Z,16.83
2017-12-30T23:25:18.518Z,20.53
2017-12-30T23:27:48.736Z,19.03
2017-12-30T23:30:17.743Z,14.37
2017-12-30T23:32:45.405Z,19.67
2017-12-30T23:35:13.033Z,23.70
2017-12-30T23:37:40.706Z,17.93
2017-12-30T23:40:08.309Z,20.70
2017-12-30T23:42:36.775Z,23.60
2017-12-30T23:45:05.141Z,21.00
2017-12-30T23:47:32.700Z,26.00
2017-12-30T23:50:00.309Z,23.57
2017-12-30T23:52:28.697Z,22.17
2017-12-30T23:54:57.000Z,24.20
2017-12-30T23:57:24.618Z,23.97
2017-12-30T23:59:52.294Z,23.07
